KLGF/LGF METAR and TAF weather

Enter ICAO airport designator
Station Type Date Time Source
KLGF METAR 2018/12/15 01:58 UTC NOAA

KLGF 150158Z AUTO 00000KT 10SM FEW200 12/02 A3015 RMK AO2 SLPNO T01230023 PNO $


Station Type Date Time Source
KLGF Decoded METAR 2018/12/15 01:58 UTC NOAA

Station name not available
Dec 14, 2018 - 08:58 PM EST / 2018.12.15 0158 UTC
Wind: Calm:0
Visibility: 10 mile(s):0
Sky conditions: mostly clear
Temperature: 54.1 F (12.3 C)
Dew Point: 36.1 F (2.3 C)
Relative Humidity: 50%
Pressure (altimeter): 30.15 in. Hg (1020 hPa)
ob: KLGF 150158Z AUTO 00000KT 10SM FEW200 12/02 A3015 RMK AO2 SLPNO T01230023 PNO
cycle: 2

Station Type Date Time Source
KLGF TAF UTC NOAA

Error!


Example: see airport list